Time;durP1;ratioP1;P1;durP2;ratioP2;P2;SDS_P1;SDS_P2;PMS_P1;PMS_P2;Temp;Humidity;BMP_temperature;BMP_pressure;BME280_temperature;BME280_humidity;BME280_pressure;Samples;Min_cycle;Max_cycle;Signal;HPM_P1;HPM_P2
2022/01/07 00:01:30;;;;;;;15.63;6.07;;;3.70;99.90;;;;;;4837531;29;20114;-59
2022/01/07 00:03:56;;;;;;;18.48;7.10;;;3.70;99.90;;;;;;4839036;29;20042;-59
2022/01/07 00:06:22;;;;;;;20.27;6.50;;;3.70;99.90;;;;;;4837428;29;20081;-59
2022/01/07 00:08:48;;;;;;;12.53;6.43;;;3.80;99.90;;;;;;4847448;29;20061;-61
2022/01/07 00:11:13;;;;;;;14.33;5.73;;;3.70;99.90;;;;;;4835703;29;20440;-59
2022/01/07 00:13:39;;;;;;;15.98;6.45;;;3.80;99.90;;;;;;4852772;29;20110;-59
2022/01/07 00:16:05;;;;;;;14.83;6.37;;;3.80;99.90;;;;;;4853445;29;20117;-59
2022/01/07 00:18:31;;;;;;;17.75;7.55;;;3.80;99.90;;;;;;4852925;29;20635;-59
2022/01/07 00:20:57;;;;;;;17.50;6.45;;;3.70;99.90;;;;;;4853213;29;20338;-59
2022/01/07 00:23:23;;;;;;;19.73;7.57;;;3.70;99.90;;;;;;4853320;29;20042;-59
2022/01/07 00:25:49;;;;;;;19.15;6.57;;;3.70;99.90;;;;;;4836215;29;20060;-59
2022/01/07 00:28:15;;;;;;;;;;;3.70;99.90;;;;;;4837215;29;20447;-59
2022/01/07 00:30:41;;;;;;;13.60;6.80;;;3.70;99.90;;;;;;4853073;29;20039;-59
2022/01/07 00:33:07;;;;;;;17.47;7.13;;;3.70;99.90;;;;;;4853206;29;20050;-59
2022/01/07 00:35:34;;;;;;;19.85;8.32;;;3.60;99.90;;;;;;4852836;29;20090;-60
2022/01/07 00:38:00;;;;;;;20.92;7.68;;;3.70;99.90;;;;;;4835865;29;20061;-59
2022/01/07 00:40:26;;;;;;;16.50;7.25;;;3.60;99.90;;;;;;4836378;29;20139;-60
2022/01/07 00:42:53;;;;;;;16.85;6.45;;;3.60;99.90;;;;;;4853285;29;20054;-59
2022/01/07 00:45:21;;;;;;;25.35;8.00;;;3.60;99.90;;;;;;4836196;29;20068;-59
2022/01/07 00:47:47;;;;;;;18.02;7.80;;;3.50;99.90;;;;;;4836330;29;20069;-59
2022/01/07 00:50:15;;;;;;;14.35;6.28;;;3.50;99.90;;;;;;4835257;29;20085;-59
2022/01/07 00:52:41;;;;;;;17.80;6.80;;;3.50;99.90;;;;;;4852425;29;20049;-59
2022/01/07 00:55:09;;;;;;;17.65;7.70;;;3.40;99.90;;;;;;4836253;29;20042;-59
2022/01/07 00:57:34;;;;;;;17.48;7.72;;;3.40;99.90;;;;;;4835996;29;20608;-59
2022/01/07 01:00:00;;;;;;;18.60;8.73;;;3.40;99.90;;;;;;4852872;29;20057;-59
2022/01/07 01:02:26;;;;;;;24.47;8.07;;;3.40;99.90;;;;;;4852459;29;20042;-59
2022/01/07 01:04:51;;;;;;;18.33;7.50;;;3.30;99.90;;;;;;4852338;29;20126;-59
2022/01/07 01:07:17;;;;;;;18.63;7.27;;;3.30;99.90;;;;;;4852372;29;20042;-59
2022/01/07 01:09:43;;;;;;;23.93;8.23;;;3.30;99.90;;;;;;4832727;29;20058;-59
2022/01/07 01:12:11;;;;;;;18.20;8.02;;;3.20;99.90;;;;;;4836005;29;20299;-59
2022/01/07 01:14:37;;;;;;;21.50;7.80;;;3.20;99.90;;;;;;4836174;29;20193;-59
2022/01/07 01:17:04;;;;;;;24.33;9.10;;;3.20;99.90;;;;;;4852547;29;20092;-59
2022/01/07 01:19:29;;;;;;;17.65;8.38;;;3.20;99.90;;;;;;4835504;29;20060;-59
2022/01/07 01:21:56;;;;;;;19.33;7.90;;;3.10;99.90;;;;;;4852235;29;20105;-59
2022/01/07 01:24:22;;;;;;;15.77;7.88;;;3.10;99.90;;;;;;4852214;29;20057;-59
2022/01/07 01:26:48;;;;;;;;;;;3.10;99.90;;;;;;4836340;29;20049;-59
2022/01/07 01:29:13;;;;;;;19.98;7.78;;;3.00;99.90;;;;;;4835483;29;19932;-59
2022/01/07 01:31:39;;;;;;;16.17;8.10;;;3.10;99.90;;;;;;4852201;29;20144;-59
2022/01/07 01:34:05;;;;;;;20.70;8.43;;;3.00;99.90;;;;;;4835647;29;20045;-59
2022/01/07 01:36:32;;;;;;;24.73;8.63;;;3.00;99.90;;;;;;4835864;29;20474;-59
2022/01/07 01:38:59;;;;;;;16.10;8.05;;;3.00;99.90;;;;;;4834834;29;20302;-59
2022/01/07 01:41:25;;;;;;;21.88;9.18;;;3.00;99.90;;;;;;4835619;29;20456;-59
2022/01/07 01:43:51;;;;;;;21.25;8.82;;;3.00;99.90;;;;;;4851918;29;20088;-59
2022/01/07 01:46:17;;;;;;;20.35;8.80;;;3.00;99.90;;;;;;4835821;29;20074;-59
2022/01/07 01:48:44;;;;;;;17.30;8.35;;;2.90;99.90;;;;;;4834629;29;20072;-59
2022/01/07 01:51:10;;;;;;;20.17;9.48;;;3.00;99.90;;;;;;4851903;29;20084;-59
2022/01/07 01:53:36;;;;;;;19.37;8.43;;;2.90;99.90;;;;;;4851071;29;20048;-58
2022/01/07 01:56:01;;;;;;;18.87;7.70;;;2.90;99.90;;;;;;4852135;29;20046;-59
2022/01/07 01:58:27;;;;;;;19.42;9.43;;;2.90;99.90;;;;;;4851357;29;20122;-59
2022/01/07 02:00:53;;;;;;;18.10;8.88;;;2.90;99.90;;;;;;4834946;29;20046;-59
2022/01/07 02:03:19;;;;;;;19.57;8.43;;;2.90;99.90;;;;;;4835327;29;20070;-59
2022/01/07 02:05:46;;;;;;;19.52;8.73;;;2.80;99.90;;;;;;4835319;29;20050;-59
2022/01/07 02:08:12;;;;;;;20.20;8.68;;;2.80;99.90;;;;;;4850750;29;20050;-59
2022/01/07 02:10:37;;;;;;;19.35;8.90;;;2.80;99.90;;;;;;4835034;29;20066;-59
2022/01/07 02:13:03;;;;;;;21.03;9.50;;;2.80;99.90;;;;;;4851497;29;20075;-59
2022/01/07 02:15:29;;;;;;;16.13;8.60;;;2.80;99.90;;;;;;4851941;29;20060;-59
2022/01/07 02:17:57;;;;;;;17.35;8.63;;;2.90;99.90;;;;;;4834990;29;20126;-59
2022/01/07 02:20:25;;;;;;;18.63;8.98;;;2.80;99.90;;;;;;4834839;29;20072;-59
2022/01/07 02:22:53;;;;;;;19.33;8.30;;;2.80;99.90;;;;;;4834685;29;20064;-59
2022/01/07 02:25:22;;;;;;;18.00;8.95;;;2.80;99.90;;;;;;4851852;29;20110;-59
2022/01/07 02:27:48;;;;;;;22.35;9.73;;;2.80;99.90;;;;;;4835231;29;20110;-59
2022/01/07 02:30:19;;;;;;;16.90;9.05;;;2.80;99.90;;;;;;4851064;29;20558;-59
2022/01/07 02:32:45;;;;;;;20.10;8.55;;;2.80;99.90;;;;;;4819199;29;20066;-59
2022/01/07 02:35:11;;;;;;;;;;;2.80;99.90;;;;;;4834982;29;20069;-59
2022/01/07 02:37:37;;;;;;;17.90;8.77;;;2.70;99.90;;;;;;4849642;29;19928;-59
2022/01/07 02:40:05;;;;;;;14.95;8.90;;;2.80;99.90;;;;;;4851168;29;20042;-59
2022/01/07 02:42:30;;;;;;;17.23;9.45;;;2.80;99.90;;;;;;4834995;29;20080;-59
2022/01/07 02:44:56;;;;;;;17.77;9.77;;;2.80;99.90;;;;;;4834651;29;20090;-59
2022/01/07 02:47:22;;;;;;;18.97;8.47;;;2.80;99.90;;;;;;4834666;29;20374;-59
2022/01/07 02:49:48;;;;;;;15.02;8.75;;;2.80;99.90;;;;;;4834344;29;20129;-59
2022/01/07 02:52:15;;;;;;;16.98;9.45;;;2.80;99.90;;;;;;4819518;29;20065;-59
2022/01/07 02:54:46;;;;;;;17.92;9.20;;;2.80;99.90;;;;;;4851369;29;20065;-59
2022/01/07 02:57:11;;;;;;;22.27;9.70;;;2.80;99.90;;;;;;4849874;29;20072;-59
2022/01/07 02:59:37;;;;;;;16.77;9.60;;;2.80;99.90;;;;;;4850659;29;20113;-59
2022/01/07 03:02:03;;;;;;;14.93;9.10;;;2.80;99.90;;;;;;4834916;29;20065;-59
2022/01/07 03:04:29;;;;;;;16.70;9.27;;;2.80;99.90;;;;;;4834639;29;20050;-59
2022/01/07 03:06:54;;;;;;;17.77;10.00;;;2.80;99.90;;;;;;4834482;29;20398;-59
2022/01/07 03:09:20;;;;;;;14.95;9.20;;;2.80;99.90;;;;;;4832309;29;20360;-59
2022/01/07 03:11:46;;;;;;;18.47;9.83;;;2.80;99.90;;;;;;4849727;29;20110;-59
2022/01/07 03:14:12;;;;;;;15.93;9.40;;;2.80;99.90;;;;;;4850992;29;20072;-59
2022/01/07 03:16:39;;;;;;;17.50;9.67;;;2.80;99.90;;;;;;4834124;29;20310;-59
2022/01/07 03:19:06;;;;;;;14.73;9.38;;;2.80;99.90;;;;;;4846326;29;20337;-59
2022/01/07 03:21:32;;;;;;;19.33;10.68;;;2.80;99.90;;;;;;4848493;29;20114;-59
2022/01/07 03:23:57;;;;;;;17.67;10.80;;;2.80;99.90;;;;;;4837689;29;20046;-59
2022/01/07 03:26:23;;;;;;;15.17;9.97;;;2.80;99.90;;;;;;4845245;29;20421;-59
2022/01/07 03:28:49;;;;;;;19.23;11.63;;;2.80;99.90;;;;;;4819334;29;20085;-59
2022/01/07 03:31:15;;;;;;;19.63;11.13;;;2.80;99.90;;;;;;4825372;29;20322;-59
2022/01/07 03:33:40;;;;;;;17.75;10.52;;;2.80;99.90;;;;;;4854393;29;20065;-59
2022/01/07 03:36:06;;;;;;;20.43;10.90;;;2.80;99.90;;;;;;4854124;29;20118;-59
2022/01/07 03:38:32;;;;;;;15.93;9.98;;;2.80;99.90;;;;;;4853412;29;20066;-59
2022/01/07 03:40:58;;;;;;;13.88;10.05;;;2.80;99.90;;;;;;4853615;29;20053;-59
2022/01/07 03:43:24;;;;;;;20.37;10.53;;;2.80;99.90;;;;;;4837098;29;20054;-59
2022/01/07 03:45:50;;;;;;;14.20;10.23;;;2.80;99.90;;;;;;4837205;29;20068;-59
2022/01/07 03:48:16;;;;;;;17.40;11.03;;;2.80;99.90;;;;;;4837581;29;20073;-59
2022/01/07 03:50:41;;;;;;;17.08;11.05;;;2.80;99.90;;;;;;4853696;29;20650;-59
2022/01/07 03:53:08;;;;;;;17.07;11.00;;;2.80;99.90;;;;;;4852737;29;20083;-59
2022/01/07 03:55:34;;;;;;;16.98;11.98;;;2.80;99.90;;;;;;4837180;29;20064;-60
2022/01/07 03:58:00;;;;;;;17.10;10.35;;;2.80;99.90;;;;;;4837124;29;20065;-59
2022/01/07 04:00:38;;;;;;;21.42;11.07;;;2.80;99.90;;;;;;4852554;29;20060;-59
2022/01/07 04:03:07;;;;;;;18.52;11.68;;;2.90;99.90;;;;;;4837156;29;20065;-59
2022/01/07 04:05:33;;;;;;;14.32;11.15;;;2.80;99.90;;;;;;4853394;29;20056;-59
2022/01/07 04:07:58;;;;;;;15.90;10.90;;;2.90;99.90;;;;;;4853575;29;20371;-59
2022/01/07 04:10:24;;;;;;;16.35;11.23;;;2.90;99.90;;;;;;4836713;29;20109;-59
2022/01/07 04:12:51;;;;;;;17.88;11.45;;;2.90;99.90;;;;;;4853189;29;20038;-60
2022/01/07 04:15:17;;;;;;;17.92;10.52;;;2.90;99.90;;;;;;4853687;29;20175;-59
2022/01/07 04:17:48;;;;;;;15.48;11.45;;;2.80;99.90;;;;;;4836848;29;20053;-59
2022/01/07 04:20:18;;;;;;;17.23;11.30;;;2.90;99.90;;;;;;4836751;29;20113;-59
2022/01/07 04:22:43;;;;;;;17.52;10.93;;;2.90;99.90;;;;;;4835867;29;20114;-59
2022/01/07 04:25:17;;;;;;;20.75;11.50;;;2.90;99.90;;;;;;4836119;29;20066;-59
2022/01/07 04:27:54;;;;;;;17.13;10.85;;;2.90;99.90;;;;;;4837031;29;20053;-60
2022/01/07 04:30:22;;;;;;;18.40;11.25;;;2.90;99.90;;;;;;4835665;29;20064;-59
2022/01/07 04:32:48;;;;;;;18.55;11.10;;;2.90;99.90;;;;;;4852841;29;20073;-59
2022/01/07 04:35:15;;;;;;;19.80;11.02;;;2.90;99.90;;;;;;4835960;29;20133;-59
2022/01/07 04:37:42;;;;;;;15.40;11.35;;;2.90;99.90;;;;;;4822684;29;20086;-59
2022/01/07 04:40:12;;;;;;;;;;;2.90;99.90;;;;;;4835618;29;20050;-59
2022/01/07 04:42:38;;;;;;;18.08;10.43;;;2.90;99.90;;;;;;4833353;29;19925;-59
2022/01/07 04:45:05;;;;;;;18.80;10.98;;;2.90;99.90;;;;;;4833457;29;20065;-59
2022/01/07 04:47:31;;;;;;;13.10;10.55;;;2.90;99.90;;;;;;4832951;29;20149;-59
2022/01/07 04:49:58;;;;;;;14.45;10.63;;;3.00;99.90;;;;;;4834484;29;20135;-59
2022/01/07 04:52:23;;;;;;;19.13;11.65;;;2.90;99.90;;;;;;4832822;29;20066;-59
2022/01/07 04:54:49;;;;;;;17.90;11.00;;;3.00;99.90;;;;;;4818087;29;20060;-59
2022/01/07 04:57:15;;;;;;;14.83;10.47;;;3.00;99.90;;;;;;4834212;29;20057;-59
2022/01/07 04:59:40;;;;;;;17.47;11.67;;;3.00;99.90;;;;;;4833288;29;20106;-59
2022/01/07 05:02:06;;;;;;;14.87;11.10;;;3.00;99.90;;;;;;4834535;29;20050;-59
2022/01/07 05:04:32;;;;;;;19.30;11.85;;;3.00;99.90;;;;;;4832911;29;20149;-59
2022/01/07 05:06:58;;;;;;;18.27;11.43;;;3.00;99.90;;;;;;4834442;29;20459;-59
2022/01/07 05:09:23;;;;;;;15.83;11.57;;;3.00;99.90;;;;;;4833350;29;20360;-59
2022/01/07 05:11:52;;;;;;;16.10;11.30;;;3.00;99.90;;;;;;4832961;29;20058;-59
2022/01/07 05:14:18;;;;;;;15.50;11.55;;;3.00;99.90;;;;;;4834204;29;20050;-59
2022/01/07 05:16:45;;;;;;;16.35;11.82;;;3.10;99.90;;;;;;4833075;29;20049;-59
2022/01/07 05:19:11;;;;;;;16.67;11.68;;;3.10;99.90;;;;;;4833705;29;20133;-59
2022/01/07 05:21:37;;;;;;;19.90;12.18;;;3.10;99.90;;;;;;4832775;29;20126;-59
2022/01/07 05:24:03;;;;;;;16.98;11.23;;;3.10;99.90;;;;;;4834172;29;20054;-59
2022/01/07 05:26:29;;;;;;;17.02;11.10;;;3.10;99.90;;;;;;4834396;29;20078;-59
2022/01/07 05:28:55;;;;;;;14.40;10.55;;;3.10;99.90;;;;;;4832726;29;20123;-60
2022/01/07 05:31:22;;;;;;;14.45;10.48;;;3.10;99.90;;;;;;4817710;29;20517;-59
2022/01/07 05:33:52;;;;;;;15.98;10.30;;;3.20;99.90;;;;;;4832980;29;20508;-59
2022/01/07 05:36:19;;;;;;;17.23;10.95;;;3.20;99.90;;;;;;4837384;29;20062;-59
2022/01/07 05:38:46;;;;;;;14.48;10.50;;;3.20;99.90;;;;;;4851926;29;20058;-59
2022/01/07 05:41:12;;;;;;;13.82;10.75;;;3.20;99.90;;;;;;4835240;29;20054;-59
2022/01/07 05:43:38;;;;;;;16.38;10.80;;;3.20;99.90;;;;;;4835172;29;20069;-59
2022/01/07 05:46:04;;;;;;;20.47;10.90;;;3.20;99.90;;;;;;4852235;29;20057;-59
2022/01/07 05:48:29;;;;;;;15.13;11.05;;;3.20;99.90;;;;;;4852294;29;20083;-59
2022/01/07 05:50:55;;;;;;;13.87;10.13;;;3.20;99.90;;;;;;4851781;29;20079;-59
2022/01/07 05:53:21;;;;;;;14.20;10.40;;;3.30;99.90;;;;;;4846127;29;20632;-59
2022/01/07 05:55:47;;;;;;;15.43;9.90;;;3.30;99.90;;;;;;4840648;29;20320;-59
2022/01/07 05:58:12;;;;;;;14.87;10.43;;;3.30;99.90;;;;;;4835729;29;20080;-59
2022/01/07 06:00:38;;;;;;;14.73;10.73;;;3.30;99.90;;;;;;4835736;29;20328;-59
2022/01/07 06:03:04;;;;;;;18.27;11.07;;;3.30;99.90;;;;;;4835019;29;20552;-59
2022/01/07 06:05:29;;;;;;;18.17;11.90;;;3.30;99.90;;;;;;4830552;29;20080;-59
2022/01/07 06:07:55;;;;;;;17.47;10.90;;;3.30;99.90;;;;;;4833592;29;20058;-59
2022/01/07 06:10:20;;;;;;;15.47;10.70;;;3.40;99.90;;;;;;4825858;29;20050;-59
2022/01/07 06:12:46;;;;;;;17.40;11.33;;;3.40;99.90;;;;;;4852049;29;20133;-59
2022/01/07 06:15:12;;;;;;;19.33;11.97;;;3.30;99.90;;;;;;4835454;29;20046;-59
2022/01/07 06:17:38;;;;;;;15.27;10.70;;;3.40;99.90;;;;;;4851765;29;20494;-59
2022/01/07 06:20:05;;;;;;;17.27;10.80;;;3.40;99.90;;;;;;4835657;29;20142;-59
2022/01/07 06:22:31;;;;;;;15.32;10.52;;;3.40;99.90;;;;;;4851314;29;20046;-61
2022/01/07 06:24:56;;;;;;;14.47;10.87;;;3.40;99.90;;;;;;4848754;29;20087;-62
2022/01/07 06:27:22;;;;;;;15.53;10.23;;;3.40;99.90;;;;;;4834475;29;20129;-62
2022/01/07 06:29:48;;;;;;;17.63;11.70;;;3.40;99.90;;;;;;4852173;29;20429;-59
2022/01/07 06:32:14;;;;;;;16.55;10.77;;;3.40;99.90;;;;;;4852082;29;20050;-58
2022/01/07 06:34:39;;;;;;;16.83;10.33;;;3.40;99.90;;;;;;4819788;29;20096;-59
2022/01/07 06:37:05;;;;;;;16.03;10.97;;;3.40;99.90;;;;;;4831548;29;20097;-60
2022/01/07 06:39:32;;;;;;;18.50;11.70;;;3.40;99.90;;;;;;4833680;29;20081;-59
2022/01/07 06:41:59;;;;;;;16.90;11.27;;;3.40;99.90;;;;;;4831995;29;20050;-59
2022/01/07 06:44:26;;;;;;;16.23;10.93;;;3.40;99.90;;;;;;4832382;29;20058;-59
2022/01/07 06:46:52;;;;;;;17.30;11.02;;;3.40;99.90;;;;;;4831928;29;20062;-59
2022/01/07 06:49:17;;;;;;;15.10;10.25;;;3.40;99.90;;;;;;4831895;29;20055;-58
2022/01/07 06:51:44;;;;;;;13.13;11.00;;;3.40;99.90;;;;;;4830551;29;20078;-59
2022/01/07 06:54:11;;;;;;;14.38;10.55;;;3.40;99.90;;;;;;4833596;29;20066;-60
2022/01/07 06:56:44;;;;;;;15.93;10.63;;;3.40;99.90;;;;;;4836813;29;20046;-58
2022/01/07 06:59:14;;;;;;;20.20;11.38;;;3.40;99.90;;;;;;4836640;29;20069;-59
2022/01/07 07:01:44;;;;;;;15.20;11.20;;;3.40;99.90;;;;;;4835472;29;20054;-59
2022/01/07 07:04:10;;;;;;;15.00;10.55;;;3.40;99.90;;;;;;4835188;29;20100;-59
2022/01/07 07:06:36;;;;;;;15.70;10.87;;;3.50;99.90;;;;;;4834935;29;20051;-58
2022/01/07 07:09:03;;;;;;;17.23;11.20;;;3.50;99.90;;;;;;4836463;29;20826;-58
2022/01/07 07:11:28;;;;;;;;;;;3.50;99.90;;;;;;4820100;29;20065;-58
2022/01/07 07:13:54;;;;;;;14.85;10.75;;;3.40;99.90;;;;;;4850224;29;19925;-58
2022/01/07 07:16:20;;;;;;;16.80;11.20;;;3.40;99.90;;;;;;4836418;29;20050;-58
2022/01/07 07:18:46;;;;;;;20.17;12.23;;;3.50;99.90;;;;;;4834663;29;20309;-58
2022/01/07 07:21:12;;;;;;;15.52;11.73;;;3.50;99.90;;;;;;4819642;29;20066;-59
2022/01/07 07:23:38;;;;;;;18.77;12.15;;;3.50;99.90;;;;;;4835877;29;20042;-58
2022/01/07 07:26:03;;;;;;;20.07;12.90;;;3.50;99.90;;;;;;4834910;29;20100;-56
2022/01/07 07:28:29;;;;;;;18.97;12.03;;;3.50;99.90;;;;;;4836018;29;20794;-58
2022/01/07 07:30:59;;;;;;;17.80;12.50;;;3.60;99.90;;;;;;4834657;29;20065;-58
2022/01/07 07:38:45;;;;;;;15.63;12.30;;;3.60;99.90;;;;;;4833657;29;20304;-58
2022/01/07 07:41:11;;;;;;;20.60;13.18;;;3.60;99.90;;;;;;4836113;29;20046;-58
2022/01/07 07:43:38;;;;;;;16.23;13.43;;;3.60;99.90;;;;;;4850003;29;20474;-58
2022/01/07 07:46:04;;;;;;;;;;;3.60;99.90;;;;;;4834500;29;20054;-58
2022/01/07 07:48:31;;;;;;;19.88;14.38;;;3.60;99.90;;;;;;4834062;29;19936;-58
2022/01/07 07:50:57;;;;;;;19.70;13.55;;;3.60;99.90;;;;;;4834539;29;20069;-57
2022/01/07 07:53:23;;;;;;;23.77;14.02;;;3.60;99.90;;;;;;4834804;29;20047;-59
2022/01/07 07:55:53;;;;;;;29.95;15.52;;;3.60;99.90;;;;;;4833575;29;20062;-58
2022/01/07 07:58:23;;;;;;;21.50;14.40;;;3.70;99.90;;;;;;4833727;29;20065;-57
2022/01/07 08:00:49;;;;;;;20.00;14.73;;;3.70;99.90;;;;;;4817553;29;20095;-60
2022/01/07 08:03:15;;;;;;;20.15;14.32;;;3.80;99.90;;;;;;4849012;29;20046;-60
2022/01/07 08:05:41;;;;;;;23.58;15.43;;;3.70;99.90;;;;;;4832837;29;20070;-60
2022/01/07 08:08:07;;;;;;;23.20;14.90;;;3.80;99.90;;;;;;4833799;29;20482;-63
2022/01/07 08:10:33;;;;;;;21.50;15.07;;;3.80;99.90;;;;;;4834048;29;20058;-61
2022/01/07 08:16:00;;;;;;;22.27;15.52;;;3.80;99.90;;;;;;4835371;29;20123;-60
2022/01/07 08:18:32;;;;;;;24.95;16.80;;;3.80;99.90;;;;;;4819318;29;20097;-61
2022/01/07 08:21:06;;;;;;;26.58;16.83;;;3.90;99.90;;;;;;4834321;29;20082;-61
2022/01/07 08:23:33;;;;;;;26.52;17.25;;;3.90;99.90;;;;;;4834719;29;20779;-60
2022/01/07 08:25:59;;;;;;;25.73;17.27;;;3.90;99.90;;;;;;4818603;29;20064;-61
2022/01/07 08:28:29;;;;;;;23.60;17.02;;;3.90;99.90;;;;;;4834087;29;20047;-61
2022/01/07 08:36:19;;;;;;;28.52;16.60;;;4.00;99.90;;;;;;4845235;29;20107;-61
2022/01/07 08:38:45;;;;;;;33.22;18.10;;;4.00;99.90;;;;;;4832957;29;20077;-59
2022/01/07 08:41:12;;;;;;;30.75;17.85;;;4.10;99.90;;;;;;4858727;29;20070;-59
2022/01/07 08:43:38;;;;;;;30.92;17.63;;;4.10;99.90;;;;;;4845141;29;20140;-60
2022/01/07 08:46:07;;;;;;;29.77;18.15;;;4.10;99.90;;;;;;4857044;29;20085;-61
2022/01/07 08:48:34;;;;;;;26.17;18.67;;;4.10;99.90;;;;;;4859283;29;20056;-58
2022/01/07 08:51:00;;;;;;;28.88;17.70;;;4.10;99.90;;;;;;4836430;29;20053;-62
2022/01/07 08:53:25;;;;;;;28.88;18.70;;;4.20;99.90;;;;;;4852535;29;20332;-62
2022/01/07 08:56:01;;;;;;;31.67;19.15;;;4.20;99.90;;;;;;4835873;29;20053;-60
2022/01/07 08:58:27;;;;;;;28.98;17.77;;;4.20;99.90;;;;;;4844088;29;20058;-60
2022/01/07 09:00:53;;;;;;;29.55;17.98;;;4.30;99.90;;;;;;4818582;29;20050;-60
2022/01/07 09:03:19;;;;;;;25.42;17.85;;;4.30;99.90;;;;;;4825476;29;20053;-60
2022/01/07 09:05:45;;;;;;;36.13;18.00;;;4.40;99.90;;;;;;4836263;29;20054;-60
2022/01/07 09:08:12;;;;;;;23.85;17.10;;;4.30;99.90;;;;;;4836114;29;20050;-60
2022/01/07 09:10:38;;;;;;;27.52;19.35;;;4.40;99.90;;;;;;4836358;29;20089;-60
2022/01/07 09:13:04;;;;;;;33.80;18.10;;;4.40;99.90;;;;;;4849387;29;20142;-60
2022/01/07 09:15:31;;;;;;;29.90;18.60;;;4.40;99.90;;;;;;4836361;29;20144;-60
2022/01/07 09:17:56;;;;;;;29.92;17.67;;;4.40;99.90;;;;;;4835819;29;20065;-60
2022/01/07 09:20:22;;;;;;;35.77;20.03;;;4.50;99.90;;;;;;4828399;29;20061;-60
2022/01/07 09:22:49;;;;;;;36.37;19.97;;;4.40;99.90;;;;;;4832150;29;20053;-60
2022/01/07 09:25:15;;;;;;;;;;;4.50;99.90;;;;;;4852822;29;20050;-60
2022/01/07 09:27:41;;;;;;;37.90;20.23;;;4.50;99.90;;;;;;4835964;29;20269;-59
2022/01/07 09:30:10;;;;;;;38.85;19.52;;;4.50;99.90;;;;;;4835630;29;20146;-60
2022/01/07 09:32:36;;;;;;;31.67;20.05;;;4.50;99.90;;;;;;4852311;29;20101;-60
2022/01/07 09:35:02;;;;;;;30.80;19.35;;;4.50;99.90;;;;;;4852318;29;20125;-60
2022/01/07 09:37:28;;;;;;;34.27;20.10;;;4.60;99.90;;;;;;4834919;29;20129;-59
2022/01/07 09:39:54;;;;;;;31.98;19.08;;;4.60;99.90;;;;;;4835630;29;20105;-59
2022/01/07 09:42:19;;;;;;;36.97;20.33;;;4.60;99.90;;;;;;4835918;29;20072;-57
2022/01/07 09:44:45;;;;;;;32.13;20.03;;;4.70;99.90;;;;;;4835752;29;20093;-59
2022/01/07 09:47:12;;;;;;;33.80;18.40;;;4.70;99.90;;;;;;4851952;29;20050;-62
2022/01/07 09:49:40;;;;;;;38.20;19.58;;;4.70;99.90;;;;;;4852220;29;20060;-61
2022/01/07 09:52:06;;;;;;;29.90;18.80;;;4.70;99.90;;;;;;4837182;29;20081;-60
2022/01/07 09:54:37;;;;;;;32.25;19.05;;;4.80;99.90;;;;;;4851737;29;20050;-58
2022/01/07 09:57:04;;;;;;;24.13;17.70;;;4.80;99.90;;;;;;4851896;29;20102;-59
2022/01/07 09:59:30;;;;;;;30.10;17.42;;;4.80;99.90;;;;;;4852202;29;20050;-59
2022/01/07 10:01:59;;;;;;;30.80;19.50;;;4.80;99.90;;;;;;4852526;29;20167;-60
2022/01/07 10:04:45;;;;;;;27.77;18.52;;;4.80;99.90;;;;;;4854311;29;20098;-60
2022/01/07 10:07:25;;;;;;;28.13;17.60;;;4.80;99.90;;;;;;4831860;29;20096;-58
2022/01/07 10:10:01;;;;;;;31.25;17.65;;;4.80;99.90;;;;;;4841748;29;20068;-59
2022/01/07 10:12:29;;;;;;;29.00;15.90;;;4.80;99.90;;;;;;4834763;29;20045;-60
2022/01/07 10:15:26;;;;;;;27.95;15.50;;;4.80;99.90;;;;;;4835556;29;20161;-61
2022/01/07 10:17:58;;;;;;;23.50;12.43;;;4.80;99.90;;;;;;4849995;29;20095;-60
2022/01/07 10:20:29;;;;;;;17.08;10.93;;;4.70;99.90;;;;;;4834881;29;20062;-62
2022/01/07 10:23:06;;;;;;;12.48;7.10;;;4.70;99.90;;;;;;4851654;29;20042;-60
2022/01/07 10:25:38;;;;;;;11.15;4.75;;;4.70;99.90;;;;;;4835007;29;20065;-59
2022/01/07 10:28:13;;;;;;;8.27;4.45;;;4.70;99.90;;;;;;4835124;29;20149;-69
2022/01/07 10:30:44;;;;;;;6.53;3.40;;;4.60;99.90;;;;;;4838446;29;20101;-60
2022/01/07 10:33:25;;;;;;;5.82;3.35;;;4.60;99.90;;;;;;4838726;29;20054;-60
2022/01/07 10:35:56;;;;;;;6.53;3.70;;;4.60;99.90;;;;;;4838456;29;20066;-60
2022/01/07 10:38:31;;;;;;;7.75;4.07;;;4.50;99.90;;;;;;4855470;29;20137;-60
2022/01/07 10:41:01;;;;;;;6.85;4.22;;;4.50;99.90;;;;;;4854937;29;20537;-60
2022/01/07 10:43:29;;;;;;;7.38;4.45;;;4.50;99.90;;;;;;4854096;29;20060;-60
2022/01/07 10:45:59;;;;;;;7.78;4.75;;;4.50;99.90;;;;;;4838417;29;20363;-62
2022/01/07 10:48:38;;;;;;;13.38;5.07;;;4.50;99.90;;;;;;4855008;29;20070;-60
2022/01/07 10:51:11;;;;;;;6.82;4.82;;;4.60;99.90;;;;;;4837959;29;20075;-61
2022/01/07 10:53:38;;;;;;;8.48;5.13;;;4.60;99.90;;;;;;4851507;29;20082;-60
2022/01/07 10:56:10;;;;;;;6.03;4.00;;;4.70;99.90;;;;;;4855029;29;20057;-62
2022/01/07 10:58:56;;;;;;;8.20;3.80;;;4.70;99.90;;;;;;4855088;29;20076;-61
2022/01/07 11:01:22;;;;;;;9.60;3.55;;;4.70;99.90;;;;;;4855250;29;20078;-62
2022/01/07 11:03:49;;;;;;;9.00;3.60;;;4.70;99.90;;;;;;4855181;29;20103;-60
2022/01/07 11:06:15;;;;;;;8.20;3.47;;;4.70;99.90;;;;;;4854903;29;20050;-61
2022/01/07 11:08:41;;;;;;;7.07;3.25;;;4.70;99.90;;;;;;4837793;29;20478;-61
2022/01/07 11:11:11;;;;;;;9.18;3.30;;;4.70;99.90;;;;;;4837299;29;20042;-60
2022/01/07 11:13:37;;;;;;;8.00;2.92;;;4.70;99.90;;;;;;4851162;29;20150;-60
2022/01/07 11:16:05;;;;;;;8.35;3.15;;;4.70;99.90;;;;;;4838198;29;20060;-60
2022/01/07 11:18:31;;;;;;;10.75;2.85;;;4.70;99.90;;;;;;4837814;29;20065;-60
2022/01/07 11:20:58;;;;;;;;;;;4.70;99.90;;;;;;4854880;29;20485;-60
2022/01/07 11:23:31;;;;;;;6.15;2.78;;;4.60;99.90;;;;;;4837341;29;19947;-59
2022/01/07 11:26:01;;;;;;;6.57;2.95;;;4.60;99.90;;;;;;4855062;29;20085;-61
2022/01/07 11:28:28;;;;;;;5.78;2.90;;;4.60;99.90;;;;;;4834579;29;20154;-59
2022/01/07 11:31:04;;;;;;;;;;;4.60;99.90;;;;;;4835236;29;20479;-59
2022/01/07 11:33:30;;;;;;;11.40;3.67;;;4.60;99.90;;;;;;4854188;29;19928;-63
2022/01/07 11:35:56;;;;;;;15.25;4.03;;;4.70;99.90;;;;;;4837878;29;20049;-64
2022/01/07 11:38:36;;;;;;;;;;;4.80;99.90;;;;;;4837576;29;20066;-60
2022/01/07 11:41:02;;;;;;;8.93;4.70;;;4.80;99.90;;;;;;4836399;29;19928;-63
2022/01/07 11:43:35;;;;;;;9.25;5.35;;;4.80;99.90;;;;;;4837032;29;20113;-61
2022/01/07 11:46:25;;;;;;;12.18;6.30;;;4.80;99.90;;;;;;4854220;29;20052;-60
2022/01/07 11:48:51;;;;;;;14.27;6.22;;;4.80;99.90;;;;;;4837084;29;20054;-61
2022/01/07 11:51:17;;;;;;;;;;;4.80;99.90;;;;;;4838152;29;20078;-61
2022/01/07 11:53:49;;;;;;;11.73;6.72;;;4.80;99.90;;;;;;4841622;29;19932;-61
2022/01/07 11:56:23;;;;;;;13.45;6.85;;;4.80;99.90;;;;;;4837279;29;20050;-61
2022/01/07 11:58:54;;;;;;;15.93;7.10;;;4.90;99.90;;;;;;4833485;29;20042;-61
2022/01/07 12:01:32;;;;;;;20.33;8.27;;;4.90;99.90;;;;;;4835624;29;20058;-60
2022/01/07 12:04:23;;;;;;;15.30;7.13;;;4.80;99.90;;;;;;4836935;29;20054;-60
2022/01/07 12:06:50;;;;;;;15.27;7.95;;;4.90;99.90;;;;;;4837587;29;20049;-60
2022/01/07 12:09:19;;;;;;;15.43;8.45;;;5.00;99.90;;;;;;4851989;29;20046;-60
2022/01/07 12:11:53;;;;;;;18.70;8.05;;;5.00;99.90;;;;;;4836954;29;20054;-60
2022/01/07 12:14:21;;;;;;;19.73;7.93;;;5.00;99.90;;;;;;4836793;29;20114;-60
2022/01/07 12:16:53;;;;;;;15.00;8.23;;;5.00;99.90;;;;;;4837349;29;20074;-65
2022/01/07 12:19:23;;;;;;;10.75;7.30;;;5.10;99.90;;;;;;4821275;29;20064;-59
2022/01/07 12:21:59;;;;;;;17.90;8.82;;;5.20;99.90;;;;;;4837064;29;20058;-59
2022/01/07 12:24:31;;;;;;;18.85;9.43;;;5.20;99.90;;;;;;4853231;29;20157;-59
2022/01/07 12:27:11;;;;;;;18.30;9.60;;;5.30;99.90;;;;;;4836002;29;20108;-60
2022/01/07 12:29:42;;;;;;;20.67;9.27;;;5.40;99.90;;;;;;4853265;29;20084;-59
2022/01/07 12:32:11;;;;;;;15.05;9.93;;;5.50;99.90;;;;;;4838985;29;20081;-62
2022/01/07 12:34:40;;;;;;;15.88;9.20;;;5.50;99.90;;;;;;4818215;29;20160;-59
2022/01/07 12:37:10;;;;;;;19.90;9.05;;;5.50;99.90;;;;;;4835699;29;20099;-59
2022/01/07 12:39:48;;;;;;;19.25;9.40;;;5.60;99.90;;;;;;4819596;29;20160;-60
2022/01/07 12:42:14;;;;;;;20.30;9.30;;;5.60;99.90;;;;;;4818146;29;20046;-60
2022/01/07 12:44:43;;;;;;;15.30;9.23;;;5.50;99.90;;;;;;4833471;29;20241;-59
2022/01/07 12:47:12;;;;;;;15.25;8.18;;;5.40;99.90;;;;;;4853190;29;20113;-59
2022/01/07 12:49:46;;;;;;;16.92;8.77;;;5.40;99.90;;;;;;4836123;29;20061;-60
2022/01/07 12:52:33;;;;;;;18.85;7.78;;;5.40;99.90;;;;;;4838907;29;20379;-59
2022/01/07 12:55:23;;;;;;;15.13;6.93;;;5.40;99.90;;;;;;4837490;29;20049;-60
2022/01/07 12:58:08;;;;;;;14.88;6.45;;;5.30;99.90;;;;;;4831862;29;20371;-59
2022/01/07 13:00:35;;;;;;;14.18;6.70;;;5.30;99.90;;;;;;4818441;29;20054;-59
2022/01/07 13:03:07;;;;;;;10.90;6.50;;;5.30;99.90;;;;;;4836636;29;20046;-59